Time;durP1;ratioP1;P1;durP2;ratioP2;P2;SDS_P1;SDS_P2;PMS_P1;PMS_P2;Temp;Humidity;BMP_temperature;BMP_pressure;BME280_temperature;BME280_humidity;BME280_pressure;Samples;Min_cycle;Max_cycle;Signal;HPM_P1;HPM_P2
2023/09/19 00:02:29;;;;;;;1.80;1.03;;;;;;;17.17;100.00;155773.78;4991919;28;20488;-81
2023/09/19 00:04:55;;;;;;;1.93;1.10;;;;;;;17.17;100.00;155772.47;5007518;28;20503;-81
2023/09/19 00:07:22;;;;;;;5.10;1.03;;;;;;;17.14;100.00;155764.66;5003715;28;20787;-81
2023/09/19 00:09:49;;;;;;;1.73;0.90;;;;;;;17.15;100.00;155768.59;5002749;28;20454;-81
2023/09/19 00:12:15;;;;;;;1.43;0.90;;;;;;;17.18;100.00;155776.41;4994723;28;20604;-81
2023/09/19 00:14:42;;;;;;;1.70;1.00;;;;;;;17.14;100.00;155764.66;4989430;28;20506;-81
2023/09/19 00:17:10;;;;;;;1.67;0.97;;;;;;;17.12;100.00;155760.78;4984353;28;20457;-81
2023/09/19 00:19:37;;;;;;;1.80;1.10;;;;;;;17.10;100.00;155755.56;4989292;28;20464;-81
2023/09/19 00:22:04;;;;;;;1.33;0.90;;;;;;;17.04;100.00;155741.25;5008535;28;20443;-81
2023/09/19 00:24:31;;;;;;;1.73;1.07;;;;;;;17.03;100.00;155737.31;4988617;28;20488;-81
2023/09/19 00:26:58;;;;;;;1.20;0.80;;;;;;;17.01;100.00;155733.44;4991679;28;20744;-81
2023/09/19 00:29:28;;;;;;;1.30;0.90;;;;;;;16.98;100.00;155725.63;4989202;28;20452;-81
2023/09/19 00:31:56;;;;;;;2.17;1.03;;;;;;;16.95;100.00;155716.50;4977272;28;20524;-81
2023/09/19 00:34:24;;;;;;;1.50;1.00;;;;;;;16.92;100.00;155710.00;4988412;28;20758;-81
2023/09/19 00:36:52;;;;;;;2.33;1.00;;;;;;;16.92;100.00;155710.00;4991506;28;20540;-81
2023/09/19 00:39:20;;;;;;;1.60;0.80;;;;;;;16.93;100.00;155712.63;4988652;28;20477;-81
2023/09/19 00:41:47;;;;;;;1.40;0.80;;;;;;;16.92;100.00;155708.69;4975244;28;20451;-81
2023/09/19 00:44:15;;;;;;;1.23;0.70;;;;;;;16.91;100.00;155707.44;4988459;28;20559;-81
2023/09/19 00:46:42;;;;;;;1.97;0.70;;;;;;;16.91;100.00;155706.13;4984540;28;20536;-81
2023/09/19 00:49:09;;;;;;;2.03;1.07;;;;;;;16.89;100.00;155702.19;4999861;28;20873;-81
2023/09/19 00:51:37;;;;;;;1.10;0.60;;;;;;;16.90;100.00;155703.50;4987823;28;20445;-81
2023/09/19 00:54:04;;;;;;;1.50;0.90;;;;;;;16.88;100.00;155699.63;4987034;28;20459;-81
2023/09/19 00:56:31;;;;;;;1.57;1.03;;;;;;;16.87;100.00;155695.69;4985089;28;20473;-81
2023/09/19 00:58:58;;;;;;;1.50;1.03;;;;;;;16.88;100.00;155698.31;4986388;28;20939;-81
2023/09/19 01:01:25;;;;;;;1.50;1.00;;;;;;;16.89;100.00;155702.19;4986185;28;20923;-81
2023/09/19 01:03:51;;;;;;;1.73;0.90;;;;;;;16.88;100.00;155699.63;4970065;28;20806;-81
2023/09/19 01:06:18;;;;;;;1.37;0.87;;;;;;;16.88;100.00;155698.31;4984277;28;20480;-81
2023/09/19 01:08:46;;;;;;;1.10;0.53;;;;;;;16.88;100.00;155698.31;4986590;28;20458;-81
2023/09/19 01:11:16;;;;;;;1.60;1.00;;;;;;;16.85;100.00;155691.81;4981857;28;20895;-81
2023/09/19 01:13:49;;;;;;;1.73;0.80;;;;;;;16.84;100.00;155689.19;4984630;28;20461;-81
2023/09/19 01:16:21;;;;;;;2.20;0.93;;;;;;;16.87;100.00;155697.00;4982827;28;20441;-81
2023/09/19 01:18:51;;;;;;;1.63;1.00;;;;;;;16.86;100.00;155694.41;4970910;28;20516;-81
2023/09/19 01:21:24;;;;;;;2.13;1.10;;;;;;;16.85;100.00;155691.81;4986256;28;20441;-81
2023/09/19 01:24:16;;;;;;;1.63;0.90;;;;;;;16.85;100.00;155691.81;4964731;28;20465;-81
2023/09/19 01:27:03;;;;;;;1.43;0.80;;;;;;;16.85;100.00;155690.50;4987054;28;20445;-82
2023/09/19 01:29:38;;;;;;;1.73;1.03;;;;;;;16.84;100.00;155687.88;4966827;28;20469;-81
2023/09/19 01:32:07;;;;;;;1.70;0.73;;;;;;;16.83;100.00;155686.59;4988509;28;20453;-81
2023/09/19 01:34:47;;;;;;;1.90;1.37;;;;;;;16.80;100.00;155678.78;4989884;28;20499;-82
2023/09/19 01:37:13;;;;;;;1.57;0.77;;;;;;;16.81;100.00;155681.38;4967098;28;20449;-81
2023/09/19 01:39:40;;;;;;;1.33;1.00;;;;;;;16.81;100.00;155680.09;4972116;28;20841;-81
2023/09/19 01:42:14;;;;;;;6.27;1.00;;;;;;;16.78;100.00;155673.59;4986948;28;20836;-81
2023/09/19 01:44:45;;;;;;;1.27;0.90;;;;;;;16.78;100.00;155673.59;4968493;28;20484;-81
2023/09/19 01:47:19;;;;;;;1.23;0.80;;;;;;;16.77;100.00;155670.97;4996575;28;20453;-81
2023/09/19 01:49:53;;;;;;;1.43;1.00;;;;;;;16.77;100.00;155670.97;4978144;28;20572;-81
2023/09/19 01:52:21;;;;;;;1.90;1.20;;;;;;;16.78;100.00;155672.28;4973240;28;20492;-81
2023/09/19 01:54:53;;;;;;;2.43;1.10;;;;;;;16.75;100.00;155664.47;4985613;28;20492;-81
2023/09/19 01:57:26;;;;;;;1.60;0.80;;;;;;;16.75;100.00;155665.78;4976021;28;20484;-81
2023/09/19 01:59:56;;;;;;;1.77;0.97;;;;;;;16.75;100.00;155665.78;4981186;28;20569;-81
2023/09/19 02:02:24;;;;;;;1.47;1.10;;;;;;;16.74;100.00;155661.88;4970405;28;20513;-81
2023/09/19 02:04:52;;;;;;;2.10;0.97;;;;;;;16.72;100.00;155657.97;4985266;28;20496;-81
2023/09/19 02:07:18;;;;;;;2.00;1.00;;;;;;;16.73;100.00;155659.28;4988209;28;20461;-81
2023/09/19 02:09:45;;;;;;;1.40;1.00;;;;;;;16.73;100.00;155659.28;4991835;28;20465;-81
2023/09/19 02:12:11;;;;;;;1.40;0.80;;;;;;;16.71;100.00;155655.34;4963255;28;20467;-82
2023/09/19 02:14:39;;;;;;;1.40;0.90;;;;;;;16.70;100.00;155652.78;4985961;28;20461;-81
2023/09/19 02:17:09;;;;;;;1.70;0.83;;;;;;;16.72;100.00;155657.97;4970546;28;21163;-81
2023/09/19 02:19:38;;;;;;;1.70;1.00;;;;;;;16.73;100.00;155659.28;4991068;28;20528;-81
2023/09/19 02:22:07;;;;;;;1.47;0.93;;;;;;;16.72;100.00;155657.97;4988905;28;20476;-81
2023/09/19 02:24:33;;;;;;;1.50;0.83;;;;;;;16.71;100.00;155654.03;4968591;28;20498;-81
2023/09/19 02:27:01;;;;;;;3.30;1.03;;;;;;;16.69;100.00;155648.84;4985407;28;20457;-81
2023/09/19 02:29:28;;;;;;;1.47;0.93;;;;;;;16.66;100.00;155642.34;4983944;28;20567;-81
2023/09/19 02:31:56;;;;;;;1.60;1.10;;;;;;;16.66;100.00;155642.34;4984414;28;20465;-81
2023/09/19 02:34:23;;;;;;;2.07;0.80;;;;;;;16.67;100.00;155643.66;4970012;28;21051;-81
2023/09/19 02:36:53;;;;;;;2.13;1.07;;;;;;;16.66;100.00;155642.34;4982161;28;20449;-81
2023/09/19 02:39:20;;;;;;;1.30;1.00;;;;;;;16.66;100.00;155642.34;4974645;28;20452;-81
2023/09/19 02:41:47;;;;;;;1.30;0.90;;;;;;;16.66;100.00;155641.03;4987545;28;20485;-80
2023/09/19 02:44:14;;;;;;;1.30;1.00;;;;;;;16.63;100.00;155633.22;4987275;28;20467;-81
2023/09/19 02:46:41;;;;;;;1.70;0.90;;;;;;;16.60;100.00;155626.72;4986906;28;20469;-81
2023/09/19 02:49:09;;;;;;;1.30;0.80;;;;;;;16.60;100.00;155625.47;4968417;28;20455;-81
2023/09/19 02:51:35;;;;;;;1.40;0.90;;;;;;;16.57;100.00;155618.97;4987605;28;20975;-81
2023/09/19 02:54:04;;;;;;;1.73;0.90;;;;;;;16.55;100.00;155612.47;4989521;28;20552;-81
2023/09/19 02:56:32;;;;;;;2.63;1.10;;;;;;;16.53;100.00;155608.53;5001148;28;20495;-81
2023/09/19 02:59:00;;;;;;;1.53;0.80;;;;;;;16.49;100.00;155598.09;4971032;28;20451;-82
2023/09/19 03:01:28;;;;;;;1.77;0.93;;;;;;;16.49;100.00;155598.09;4981716;28;20449;-81
2023/09/19 03:03:54;;;;;;;2.13;1.03;;;;;;;16.48;100.00;155595.47;4987042;28;20469;-81
2023/09/19 03:06:21;;;;;;;1.40;1.17;;;;;;;16.50;100.00;155600.66;4970198;28;20559;-81
2023/09/19 03:08:48;;;;;;;1.50;0.87;;;;;;;16.47;100.00;155591.59;4968068;28;20542;-81
2023/09/19 03:11:18;;;;;;;2.67;0.97;;;;;;;16.47;100.00;155592.88;4972222;28;20468;-80
2023/09/19 03:13:47;;;;;;;2.33;1.23;;;;;;;16.47;100.00;155592.88;4972001;28;20893;-81
2023/09/19 03:16:15;;;;;;;1.77;1.20;;;;;;;16.48;100.00;155595.47;4970412;28;20485;-81
2023/09/19 03:18:41;;;;;;;1.50;0.90;;;;;;;16.49;100.00;155596.78;4973010;28;20526;-81
2023/09/19 03:21:08;;;;;;;2.50;1.00;;;;;;;16.47;100.00;155592.88;4988054;28;20508;-81
2023/09/19 03:23:35;;;;;;;1.30;0.80;;;;;;;16.48;100.00;155595.47;4972466;28;21056;-81
2023/09/19 03:26:01;;;;;;;2.70;1.13;;;;;;;16.48;100.00;155594.16;4971014;28;20469;-81
2023/09/19 03:28:30;;;;;;;1.33;0.90;;;;;;;16.47;100.00;155591.59;4966875;28;20520;-81
2023/09/19 03:31:02;;;;;;;1.23;0.90;;;;;;;16.47;100.00;155592.88;4985732;28;20457;-81
2023/09/19 03:33:32;;;;;;;2.63;1.20;;;;;;;16.47;100.00;155592.88;4955545;28;20465;-80
2023/09/19 03:36:00;;;;;;;2.90;1.13;;;;;;;16.47;100.00;155592.88;4969876;28;20442;-81
2023/09/19 03:38:27;;;;;;;1.50;1.27;;;;;;;16.45;100.00;155587.66;4969330;28;20517;-80
2023/09/19 03:40:54;;;;;;;1.60;1.17;;;;;;;16.48;100.00;155594.16;4987082;28;20829;-80
2023/09/19 03:43:21;;;;;;;1.53;0.90;;;;;;;16.45;100.00;155588.97;4981770;28;20496;-81
2023/09/19 03:45:50;;;;;;;2.03;1.30;;;;;;;16.46;100.00;155590.28;4969123;28;20458;-80
2023/09/19 03:48:19;;;;;;;3.07;1.50;;;;;;;16.45;100.00;155587.66;4988982;28;20441;-80
2023/09/19 03:50:46;;;;;;;2.03;1.03;;;;;;;16.44;100.00;155585.09;4969713;28;20450;-80
2023/09/19 03:53:13;;;;;;;1.40;0.90;;;;;;;16.42;100.00;155581.16;4987994;28;20445;-81
2023/09/19 03:55:40;;;;;;;1.83;1.10;;;;;;;16.41;100.00;155577.28;4969909;28;20538;-81
2023/09/19 03:58:06;;;;;;;2.10;1.40;;;;;;;16.41;100.00;155578.56;4974791;28;20566;-80
2023/09/19 04:00:34;;;;;;;2.53;1.33;;;;;;;16.42;100.00;155581.16;4990052;28;20465;-81
2023/09/19 04:03:05;;;;;;;1.63;1.10;;;;;;;16.42;100.00;155579.88;4972610;28;20544;-81
2023/09/19 04:05:32;;;;;;;1.30;1.00;;;;;;;16.43;100.00;155582.47;4984052;28;20561;-81
2023/09/19 04:07:58;;;;;;;1.77;1.37;;;;;;;16.42;100.00;155581.16;4970734;28;20444;-81
2023/09/19 04:10:25;;;;;;;1.30;0.90;;;;;;;16.40;100.00;155574.66;4986079;28;20465;-81
2023/09/19 04:12:53;;;;;;;1.70;1.37;;;;;;;16.41;100.00;155577.28;4966644;28;20457;-81
2023/09/19 04:15:22;;;;;;;1.60;1.50;;;;;;;16.39;100.00;155572.06;4971618;28;20465;-81
2023/09/19 04:17:48;;;;;;;2.30;1.20;;;;;;;16.38;100.00;155569.47;4987761;28;20793;-81
2023/09/19 04:20:17;;;;;;;1.70;1.30;;;;;;;16.35;100.00;155561.66;4985510;28;20520;-81
2023/09/19 04:22:44;;;;;;;1.80;1.37;;;;;;;16.33;100.00;155557.78;4967041;28;21019;-81
2023/09/19 04:25:10;;;;;;;1.87;1.20;;;;;;;16.30;100.00;155548.66;4987417;28;20455;-81
2023/09/19 04:27:38;;;;;;;2.73;1.47;;;;;;;16.30;100.00;155549.97;4984191;28;20442;-81
2023/09/19 04:30:10;;;;;;;2.27;1.27;;;;;;;16.30;100.00;155548.66;4991737;28;20962;-81
2023/09/19 04:32:38;;;;;;;2.00;1.23;;;;;;;16.29;100.00;155547.34;4985928;28;20449;-81
2023/09/19 04:35:08;;;;;;;1.70;1.40;;;;;;;16.28;100.00;155544.75;4986036;28;20453;-80
2023/09/19 04:37:38;;;;;;;1.87;1.00;;;;;;;16.27;100.00;155540.84;4986119;28;20450;-81
2023/09/19 04:40:07;;;;;;;1.83;1.33;;;;;;;16.28;100.00;155543.47;4989827;28;20532;-81
2023/09/19 04:42:34;;;;;;;1.40;1.20;;;;;;;16.29;100.00;155546.06;4999320;28;20638;-81
2023/09/19 04:45:01;;;;;;;2.13;1.40;;;;;;;16.30;100.00;155548.66;4986264;28;20453;-81
2023/09/19 04:47:28;;;;;;;1.90;1.43;;;;;;;16.31;100.00;155552.56;4987096;28;20564;-81
2023/09/19 04:49:54;;;;;;;2.30;1.30;;;;;;;16.31;100.00;155552.56;4984953;28;20472;-81
2023/09/19 04:52:21;;;;;;;2.13;1.43;;;;;;;16.32;100.00;155553.84;4956492;28;20453;-81
2023/09/19 04:54:49;;;;;;;2.10;1.27;;;;;;;16.33;100.00;155556.47;4980940;28;20831;-81
2023/09/19 04:57:16;;;;;;;1.83;0.80;;;;;;;16.35;100.00;155561.66;4990425;28;20519;-81
2023/09/19 04:59:45;;;;;;;2.37;1.33;;;;;;;16.37;100.00;155568.16;4985964;28;20860;-81
2023/09/19 05:02:11;;;;;;;1.60;1.20;;;;;;;16.38;100.00;155569.47;4968633;28;20437;-81
2023/09/19 05:04:38;;;;;;;2.50;1.37;;;;;;;16.39;100.00;155572.06;4982293;28;20471;-81
2023/09/19 05:07:05;;;;;;;2.83;1.17;;;;;;;16.38;100.00;155570.78;4981869;28;20896;-81
2023/09/19 05:09:34;;;;;;;1.50;1.10;;;;;;;16.39;100.00;155572.06;4986744;28;20464;-81
2023/09/19 05:12:01;;;;;;;2.80;1.50;;;;;;;16.39;100.00;155572.06;4982857;28;20453;-81
2023/09/19 05:14:28;;;;;;;1.83;1.50;;;;;;;16.40;100.00;155574.66;4983600;28;20457;-80
2023/09/19 05:16:55;;;;;;;2.10;1.43;;;;;;;16.39;100.00;155572.06;4982304;28;20489;-80
2023/09/19 05:19:21;;;;;;;2.00;1.23;;;;;;;16.38;100.00;155570.78;4984878;28;20461;-80
2023/09/19 05:21:48;;;;;;;7.90;2.30;;;;;;;16.39;100.00;155573.34;4979082;28;20457;-78
2023/09/19 05:24:16;;;;;;;2.60;1.60;;;;;;;16.36;100.00;155564.28;4981954;28;20499;-78
2023/09/19 05:26:44;;;;;;;2.40;1.43;;;;;;;16.35;100.00;155561.66;4982356;28;20477;-78
2023/09/19 05:29:12;;;;;;;2.37;1.20;;;;;;;16.30;100.00;155548.66;4982335;28;20450;-78
2023/09/19 05:31:40;;;;;;;1.80;1.30;;;;;;;16.29;100.00;155546.06;4984459;28;21019;-79
2023/09/19 05:34:07;;;;;;;1.80;1.37;;;;;;;16.26;100.00;155539.56;4984290;28;20560;-79
2023/09/19 05:36:34;;;;;;;1.40;1.10;;;;;;;16.27;100.00;155540.84;4977942;28;20474;-79
2023/09/19 05:39:00;;;;;;;1.70;1.30;;;;;;;16.26;100.00;155538.25;4983026;28;21121;-79
2023/09/19 05:41:27;;;;;;;1.83;1.40;;;;;;;16.26;100.00;155538.25;4983205;28;20468;-78
2023/09/19 05:43:54;;;;;;;1.40;1.10;;;;;;;16.26;100.00;155538.25;4982923;28;20453;-79
2023/09/19 05:46:22;;;;;;;1.80;1.40;;;;;;;16.29;100.00;155546.06;4985693;28;20869;-78
2023/09/19 05:48:49;;;;;;;1.63;1.30;;;;;;;16.28;100.00;155543.47;4982947;28;20528;-79
2023/09/19 05:51:17;;;;;;;2.63;1.57;;;;;;;16.28;100.00;155544.75;4982072;28;20457;-79
2023/09/19 05:53:44;;;;;;;2.67;1.87;;;;;;;16.30;100.00;155548.66;4983766;28;20468;-79
2023/09/19 05:56:11;;;;;;;1.90;1.50;;;;;;;16.31;100.00;155551.25;4982272;28;20485;-79
2023/09/19 05:58:38;;;;;;;1.93;1.70;;;;;;;16.29;100.00;155546.06;4982259;28;20584;-79
2023/09/19 06:01:07;;;;;;;1.80;1.50;;;;;;;16.29;100.00;155546.06;4982051;28;20488;-79
2023/09/19 06:03:35;;;;;;;3.20;1.33;;;;;;;16.28;100.00;155544.75;4980907;28;20548;-79
2023/09/19 06:06:02;;;;;;;3.63;1.70;;;;;;;16.29;100.00;155547.34;4981343;28;20456;-78
2023/09/19 06:08:29;;;;;;;4.90;1.90;;;;;;;16.29;100.00;155546.06;4983748;28;21030;-78
2023/09/19 06:10:55;;;;;;;2.43;1.33;;;;;;;16.22;100.00;155527.84;4983310;28;20598;-79
2023/09/19 06:13:23;;;;;;;1.40;1.10;;;;;;;16.17;100.00;155514.88;4983757;28;20453;-79
2023/09/19 06:15:50;;;;;;;2.40;1.30;;;;;;;16.13;100.00;155504.44;4986177;28;20457;-82
2023/09/19 06:18:19;;;;;;;2.50;1.63;;;;;;;16.14;100.00;155507.06;4986547;28;20548;-80
2023/09/19 06:20:48;;;;;;;1.90;1.30;;;;;;;16.11;100.00;155499.25;4985959;28;20465;-80
2023/09/19 06:23:15;;;;;;;2.67;1.30;;;;;;;16.08;100.00;155491.44;4978329;28;20453;-80
2023/09/19 06:25:43;;;;;;;3.20;1.20;;;;;;;16.09;100.00;155494.06;4987161;28;20464;-80
2023/09/19 06:28:12;;;;;;;1.60;1.30;;;;;;;16.08;100.00;155491.44;4985513;28;20737;-79
2023/09/19 06:30:39;;;;;;;2.27;1.30;;;;;;;16.08;100.00;155491.44;4983465;28;20485;-79
2023/09/19 06:33:06;;;;;;;3.40;1.20;;;;;;;16.08;100.00;155491.44;4984702;28;20445;-78
2023/09/19 06:35:35;;;;;;;2.30;1.33;;;;;;;16.05;100.00;155483.63;4985802;28;20489;-78
2023/09/19 06:38:05;;;;;;;2.07;1.60;;;;;;;16.07;100.00;155490.13;4983764;28;20473;-78
2023/09/19 06:40:33;;;;;;;2.30;1.43;;;;;;;16.07;100.00;155488.88;4980645;28;20493;-79
2023/09/19 06:43:01;;;;;;;2.53;2.07;;;;;;;16.11;100.00;155500.56;4986519;28;21036;-79
2023/09/19 06:45:28;;;;;;;2.10;1.80;;;;;;;16.13;100.00;155505.75;4988694;28;20532;-81
2023/09/19 06:47:57;;;;;;;2.10;1.57;;;;;;;16.17;100.00;155514.88;4984665;28;20482;-79
2023/09/19 06:50:25;;;;;;;3.10;1.70;;;;;;;16.16;100.00;155512.25;4984031;28;21122;-79
2023/09/19 06:52:52;;;;;;;2.23;2.03;;;;;;;16.18;100.00;155518.75;4993473;28;20449;-82
2023/09/19 06:55:20;;;;;;;2.33;2.00;;;;;;;16.24;100.00;155533.06;4987209;28;20475;-81
2023/09/19 06:57:47;;;;;;;2.77;1.73;;;;;;;16.27;100.00;155540.84;4985346;28;20449;-80
2023/09/19 07:00:18;;;;;;;2.40;1.90;;;;;;;16.32;100.00;155555.16;4986226;28;20544;-80
2023/09/19 07:02:44;;;;;;;2.00;1.70;;;;;;;16.35;100.00;155561.66;5006282;28;20456;-80
2023/09/19 07:05:11;;;;;;;2.80;1.83;;;;;;;16.44;100.00;155586.38;5005205;28;21013;-80
2023/09/19 07:07:38;;;;;;;2.50;1.77;;;;;;;16.60;100.00;155625.47;4987156;28;20503;-80
2023/09/19 07:10:05;;;;;;;3.13;1.90;;;;;;;16.86;100.00;155694.41;4989374;28;20862;-81
2023/09/19 07:12:33;;;;;;;1.83;1.63;;;;;;;17.14;100.00;155765.97;5007249;28;20460;-81
2023/09/19 07:15:00;;;;;;;3.03;2.23;;;;;;;17.33;100.00;155814.13;4971744;28;20460;-80
2023/09/19 07:17:28;;;;;;;3.70;2.17;;;;;;;17.46;100.00;155847.94;5005873;28;20444;-80
2023/09/19 07:19:54;;;;;;;4.03;1.83;;;;;;;17.59;100.00;155883.16;5007151;28;20456;-80
2023/09/19 07:22:21;;;;;;;2.13;1.77;;;;;;;17.67;100.00;155902.69;4988293;28;20455;-80
2023/09/19 07:24:48;;;;;;;3.30;2.20;;;;;;;17.69;100.00;155907.88;5006822;28;20472;-80
2023/09/19 07:27:15;;;;;;;2.00;1.60;;;;;;;17.72;100.00;155914.38;4986815;28;20908;-80
2023/09/19 07:29:44;;;;;;;2.70;2.10;;;;;;;17.68;100.00;155903.97;4989505;28;20452;-80
2023/09/19 07:32:11;;;;;;;3.50;2.00;;;;;;;17.72;100.00;155915.69;4989431;28;20796;-80
2023/09/19 07:34:38;;;;;;;2.20;1.60;;;;;;;17.81;100.00;155937.84;4988047;28;20492;-81
2023/09/19 07:37:05;;;;;;;5.43;1.70;;;;;;;17.90;100.00;155961.25;4989821;28;20445;-81
2023/09/19 07:39:31;;;;;;;2.20;1.57;;;;;;;18.00;100.00;155988.59;5006883;28;20832;-81
2023/09/19 07:41:58;;;;;;;2.60;1.87;;;;;;;18.11;100.00;156015.94;5005541;28;20457;-80
2023/09/19 07:44:25;;;;;;;2.13;1.77;;;;;;;18.27;100.00;156058.91;5005352;28;20936;-81
2023/09/19 07:46:54;;;;;;;2.53;1.90;;;;;;;18.42;100.00;156095.41;4979159;28;20605;-81
2023/09/19 07:49:21;;;;;;;2.40;1.83;;;;;;;18.56;100.00;156131.94;5007487;28;20464;-81
2023/09/19 07:51:47;;;;;;;2.23;1.80;;;;;;;18.74;100.00;156180.09;5005445;28;20452;-80
2023/09/19 07:54:14;;;;;;;2.53;1.80;;;;;;;18.91;100.00;156223.09;4986167;28;20982;-80
2023/09/19 07:56:41;;;;;;;3.70;1.57;;;;;;;19.06;100.00;156262.19;5006533;28;21068;-81
2023/09/19 07:59:08;;;;;;;1.93;1.40;;;;;;;19.19;100.00;156294.81;4989653;28;20845;-81
2023/09/19 08:01:35;;;;;;;2.00;1.60;;;;;;;19.26;100.00;156314.34;5002534;28;20874;-81
2023/09/19 08:04:03;;;;;;;2.57;1.53;;;;;;;19.29;100.00;156322.16;5005837;28;20965;-81
2023/09/19 08:06:30;;;;;;;2.93;1.63;;;;;;;19.40;100.00;156350.91;4987910;28;20806;-81
2023/09/19 08:09:00;;;;;;;2.40;1.57;;;;;;;19.53;100.00;156382.16;4988306;28;20464;-81
2023/09/19 08:11:30;;;;;;;3.00;1.27;;;;;;;19.67;100.00;156418.69;4997678;28;20452;-81
2023/09/19 08:13:58;;;;;;;2.10;1.60;;;;;;;19.78;100.00;156447.31;4990339;28;20452;-81
2023/09/19 08:16:24;;;;;;;2.33;1.60;;;;;;;19.90;100.00;156478.66;4989004;28;20997;-81
2023/09/19 08:18:55;;;;;;;2.53;1.50;;;;;;;19.99;100.00;156502.09;5004838;28;21103;-81
2023/09/19 08:21:23;;;;;;;1.73;1.30;;;;;;;20.08;99.33;156525.59;5005308;28;20460;-81
2023/09/19 08:23:50;;;;;;;2.00;1.63;;;;;;;20.19;99.66;156552.97;4981698;28;20448;-81
2023/09/19 08:26:17;;;;;;;2.77;1.50;;;;;;;20.20;99.65;156556.84;4988718;28;21028;-81
2023/09/19 08:28:44;;;;;;;1.80;1.27;;;;;;;20.17;98.92;156549.06;4985349;28;20483;-81
2023/09/19 08:31:11;;;;;;;1.70;1.40;;;;;;;20.13;96.88;156537.31;4976986;28;20449;-81
2023/09/19 08:33:37;;;;;;;2.87;1.50;;;;;;;20.13;96.69;156537.31;5005918;28;20511;-81
2023/09/19 08:36:05;;;;;;;2.80;1.13;;;;;;;20.17;96.81;156549.06;5005788;28;20448;-81
2023/09/19 08:38:34;;;;;;;2.10;1.43;;;;;;;20.17;96.87;156549.06;4969472;28;20449;-81
2023/09/19 08:41:01;;;;;;;1.87;1.10;;;;;;;20.18;97.58;156551.66;5006157;28;21070;-81
2023/09/19 08:43:28;;;;;;;1.87;1.50;;;;;;;19.99;95.81;156502.09;4988230;28;20448;-81
2023/09/19 08:45:59;;;;;;;3.17;1.37;;;;;;;19.97;97.71;156498.19;4991834;28;20819;-82
2023/09/19 08:48:28;;;;;;;1.60;1.27;;;;;;;19.93;98.39;156486.47;5004758;28;22119;-82
2023/09/19 08:50:58;;;;;;;1.50;1.23;;;;;;;19.86;98.18;156468.19;4992006;28;20448;-82
2023/09/19 08:53:37;;;;;;;1.83;1.33;;;;;;;19.81;97.99;156455.16;5005313;28;20943;-82
2023/09/19 08:56:04;;;;;;;1.60;1.30;;;;;;;19.80;99.34;156452.59;4977199;28;21065;-82
2023/09/19 08:58:35;;;;;;;3.23;1.13;;;;;;;19.69;96.98;156423.88;4986964;28;20476;-82
2023/09/19 09:01:02;;;;;;;1.60;1.40;;;;;;;19.59;94.22;156399.09;4987238;28;20506;-82
2023/09/19 09:03:34;;;;;;;1.70;1.40;;;;;;;19.67;95.68;156418.69;4981334;28;21039;-82
2023/09/19 09:06:01;;;;;;;2.37;1.50;;;;;;;19.66;93.83;156417.38;4986065;28;20551;-82
2023/09/19 09:08:28;;;;;;;6.93;1.60;;;;;;;19.71;95.18;156430.41;4987709;28;20994;-81
2023/09/19 09:10:57;;;;;;;1.83;1.50;;;;;;;19.66;95.01;156416.06;5004809;28;20824;-81
2023/09/19 09:13:26;;;;;;;2.87;1.47;;;;;;;19.62;96.29;156406.91;4985189;28;21149;-81
2023/09/19 09:15:54;;;;;;;2.73;1.50;;;;;;;19.61;95.60;156403.03;4986918;28;20464;-81
2023/09/19 09:18:22;;;;;;;1.73;1.53;;;;;;;19.63;95.89;156409.53;4987961;28;21056;-81
2023/09/19 09:20:49;;;;;;;2.47;1.67;;;;;;;19.63;95.94;156408.22;5005418;28;20468;-81
2023/09/19 09:23:15;;;;;;;1.93;1.50;;;;;;;19.52;92.20;156379.53;5001868;28;20530;-81
2023/09/19 09:25:50;;;;;;;2.33;1.67;;;;;;;19.50;92.77;156375.66;4987485;28;20567;-81
2023/09/19 09:28:22;;;;;;;2.23;1.63;;;;;;;19.50;93.84;156375.66;5002476;28;20487;-80
2023/09/19 09:30:50;;;;;;;1.80;1.60;;;;;;;19.51;94.02;156376.97;4984711;28;20459;-81
2023/09/19 09:33:16;;;;;;;2.90;2.00;;;;;;;19.49;94.17;156373.03;4983539;28;20456;-81
2023/09/19 09:35:52;;;;;;;2.37;1.83;;;;;;;19.52;92.62;156379.53;5001367;28;20818;-81
2023/09/19 09:38:20;;;;;;;1.93;1.70;;;;;;;19.60;93.50;156400.41;4986720;28;21059;-81
2023/09/19 09:40:49;;;;;;;1.80;1.40;;;;;;;19.64;93.08;156412.16;4983974;28;20552;-81
2023/09/19 09:43:38;;;;;;;2.40;1.40;;;;;;;19.65;90.95;156413.44;4987514;28;20889;-81
2023/09/19 09:51:42;;;;;;;3.97;1.67;;;;;;;19.62;84.74;156405.66;4989923;28;20897;-78
2023/09/19 09:54:14;;;;;;;1.80;1.40;;;;;;;19.68;87.80;156421.25;4988191;28;20456;-79
2023/09/19 09:57:13;;;;;;;1.77;1.30;;;;;;;19.61;85.80;156404.34;4988002;28;20618;-78
2023/09/19 10:00:20;;;;;;;2.33;1.33;;;;;;;19.62;86.66;156405.66;5015964;23;20457;-80
2023/09/19 10:02:48;;;;;;;4.23;1.60;;;;;;;19.64;88.05;156410.84;4968812;28;20462;-80
2023/09/19 10:05:21;;;;;;;1.70;1.50;;;;;;;19.65;88.17;156414.75;4967960;28;20466;-80
2023/09/19 10:07:49;;;;;;;1.90;1.23;;;;;;;19.61;85.41;156403.03;4951031;28;20493;-80
2023/09/19 10:10:21;;;;;;;2.00;1.70;;;;;;;19.69;85.49;156423.88;4972278;28;20618;-81
2023/09/19 10:12:49;;;;;;;2.00;1.40;;;;;;;19.68;85.22;156421.25;4981097;28;20524;-81
2023/09/19 10:15:20;;;;;;;2.00;1.33;;;;;;;19.68;87.35;156421.25;4961741;28;20486;-81
2023/09/19 10:17:48;;;;;;;2.00;1.50;;;;;;;19.60;85.34;156400.41;4965909;28;20948;-81
2023/09/19 10:20:32;;;;;;;2.73;1.63;;;;;;;19.58;85.09;156396.50;4958733;28;20576;-81
2023/09/19 10:23:01;;;;;;;2.37;1.60;;;;;;;19.59;87.56;156399.09;4975173;28;20989;-81
2023/09/19 10:25:30;;;;;;;2.07;1.73;;;;;;;19.58;86.16;156396.50;4964275;28;20528;-81
2023/09/19 10:27:58;;;;;;;2.13;1.30;;;;;;;19.62;86.34;156406.91;4977523;28;20473;-81
2023/09/19 10:30:25;;;;;;;4.20;1.57;;;;;;;19.72;83.90;156431.72;4973123;28;20466;-81
2023/09/19 10:32:59;;;;;;;2.30;1.40;;;;;;;19.82;79.17;156459.09;4951737;28;20479;-82
2023/09/19 10:35:27;;;;;;;2.93;1.50;;;;;;;19.98;78.71;156500.81;4962668;28;20446;-81
2023/09/19 10:37:55;;;;;;;3.23;1.50;;;;;;;20.03;75.42;156513.88;4967623;28;20458;-82
2023/09/19 10:40:26;;;;;;;2.10;1.37;;;;;;;20.15;75.67;156542.56;4975704;28;20462;-82
2023/09/19 10:42:54;;;;;;;1.63;1.30;;;;;;;20.18;74.86;156551.66;4967495;28;20538;-81
2023/09/19 10:45:22;;;;;;;2.17;1.40;;;;;;;20.23;75.23;156564.69;4975421;28;20454;-82
2023/09/19 10:47:48;;;;;;;2.47;1.50;;;;;;;20.30;76.98;156583.03;4972417;28;20979;-81
2023/09/19 10:50:22;;;;;;;2.23;1.53;;;;;;;20.35;77.87;156594.75;4944874;28;20873;-82
2023/09/19 10:52:50;;;;;;;2.03;1.50;;;;;;;20.45;79.91;156622.16;4985485;28;20458;-82
2023/09/19 10:55:18;;;;;;;1.50;1.03;;;;;;;20.47;74.43;156627.34;4976544;28;21044;-82
2023/09/19 10:57:46;;;;;;;1.90;1.33;;;;;;;20.55;74.31;156646.91;4967544;28;20501;-82
2023/09/19 11:00:23;;;;;;;3.60;1.20;;;;;;;20.56;72.14;156649.53;4962062;28;20464;-82
2023/09/19 11:03:18;;;;;;;2.50;1.40;;;;;;;20.50;71.55;156635.19;4918759;29;20449;-82
2023/09/19 11:06:04;;;;;;;2.70;1.20;;;;;;;20.48;70.16;156629.97;4936355;28;21068;-82
2023/09/19 11:08:32;;;;;;;1.70;1.40;;;;;;;20.59;71.64;156657.38;4930093;28;21008;-82
2023/09/19 11:10:59;;;;;;;2.73;1.40;;;;;;;20.38;70.43;156602.59;4942838;28;20858;-81
2023/09/19 11:13:26;;;;;;;1.80;1.10;;;;;;;20.41;74.02;156611.69;4905584;29;20455;-82
2023/09/19 11:16:19;;;;;;;2.00;1.20;;;;;;;20.34;70.65;156592.13;4937834;28;20490;-82
2023/09/19 11:18:53;;;;;;;1.90;0.97;;;;;;;20.39;72.77;156605.16;4940059;28;20444;-82
2023/09/19 11:21:44;;;;;;;1.67;1.30;;;;;;;20.46;73.21;156624.78;4938290;28;20444;-82
2023/09/19 11:24:35;;;;;;;2.77;1.00;;;;;;;20.45;72.17;156622.16;4939281;28;20977;-82
2023/09/19 11:27:13;;;;;;;2.50;1.23;;;;;;;20.46;71.93;156624.78;4937039;28;20577;-82
2023/09/19 11:29:41;;;;;;;2.03;1.57;;;;;;;20.48;73.44;156628.66;4924211;29;20553;-82
2023/09/19 11:32:09;;;;;;;1.70;1.20;;;;;;;20.39;71.25;156605.16;4923274;29;20837;-82
2023/09/19 11:34:44;;;;;;;1.20;0.83;;;;;;;20.43;70.52;156616.94;4938916;28;20910;-82